createdAt,value
2022-10-19T00:02:39.645Z,18.50
2022-10-19T00:05:25.460Z,18.50
2022-10-19T00:08:10.985Z,18.50
2022-10-19T00:10:56.596Z,18.60
2022-10-19T00:13:42.252Z,18.60
2022-10-19T00:16:31.148Z,18.10
2022-10-19T00:19:23.507Z,18.00
2022-10-19T00:22:11.651Z,18.30
2022-10-19T00:24:59.656Z,18.50
2022-10-19T00:27:45.323Z,18.80
2022-10-19T00:30:30.885Z,18.80
2022-10-19T00:33:21.586Z,18.70
2022-10-19T00:36:14.113Z,18.30
2022-10-19T00:39:00.357Z,17.90
2022-10-19T00:41:47.636Z,17.90
2022-10-19T00:44:33.045Z,18.00
2022-10-19T00:47:21.017Z,17.90
2022-10-19T00:50:07.092Z,17.80
2022-10-19T00:52:52.960Z,17.60
2022-10-19T00:55:41.155Z,17.40
2022-10-19T00:58:27.505Z,17.10
2022-10-19T01:01:20.250Z,17.10
2022-10-19T01:04:05.697Z,17.30
2022-10-19T01:09:42.812Z,17.70
2022-10-19T01:12:43.149Z,17.90
2022-10-19T01:15:41.676Z,17.90
2022-10-19T01:18:42.174Z,17.90
2022-10-19T01:21:48.114Z,18.00
2022-10-19T01:25:10.681Z,18.20
2022-10-19T01:28:33.646Z,18.30
2022-10-19T01:31:43.991Z,18.30
2022-10-19T01:34:39.280Z,18.40
2022-10-19T01:37:42.987Z,18.40
2022-10-19T01:40:34.912Z,18.40
2022-10-19T01:43:42.942Z,18.30
2022-10-19T01:46:49.502Z,18.40
2022-10-19T01:49:55.121Z,18.30
2022-10-19T01:52:42.058Z,18.30
2022-10-19T01:55:28.922Z,18.30
2022-10-19T01:58:18.709Z,18.20
2022-10-19T02:01:07.388Z,18.10
2022-10-19T02:03:54.143Z,18.10
2022-10-19T02:06:40.600Z,18.20
2022-10-19T02:09:26.813Z,18.10
2022-10-19T02:12:13.328Z,18.00
2022-10-19T02:15:02.184Z,18.10
2022-10-19T02:17:51.391Z,18.20
2022-10-19T02:20:37.782Z,18.20
2022-10-19T02:23:27.059Z,18.10
2022-10-19T02:26:12.870Z,18.10
2022-10-19T02:28:58.764Z,18.00
2022-10-19T02:31:45.455Z,18.20
2022-10-19T02:34:31.683Z,18.10
2022-10-19T02:37:19.886Z,18.10
2022-10-19T02:40:08.848Z,18.10
2022-10-19T02:43:04.245Z,18.10
2022-10-19T02:46:23.298Z,18.00
2022-10-19T02:49:10.254Z,17.90
2022-10-19T02:51:56.871Z,17.40
2022-10-19T02:54:44.932Z,17.50
2022-10-19T02:57:32.689Z,17.60
2022-10-19T03:00:18.580Z,17.60
2022-10-19T03:03:04.111Z,17.60
2022-10-19T03:05:49.610Z,17.50
2022-10-19T03:08:34.981Z,17.40
2022-10-19T03:11:20.458Z,17.40
2022-10-19T03:14:06.250Z,17.30
2022-10-19T03:16:51.816Z,17.10
2022-10-19T03:19:37.750Z,17.20
2022-10-19T03:22:23.441Z,17.40
2022-10-19T03:25:09.368Z,17.50
2022-10-19T03:27:54.790Z,17.50
2022-10-19T03:30:41.876Z,17.20
2022-10-19T03:33:27.473Z,17.30
2022-10-19T03:36:30.818Z,17.20
2022-10-19T03:39:17.045Z,17.20
2022-10-19T03:42:02.325Z,17.30
2022-10-19T03:44:47.859Z,17.20
2022-10-19T03:47:33.964Z,17.20
2022-10-19T03:50:21.156Z,17.10
2022-10-19T03:53:07.011Z,17.10
2022-10-19T03:55:52.776Z,17.10
2022-10-19T03:58:40.652Z,17.20
2022-10-19T04:01:29.053Z,17.10
2022-10-19T04:04:16.754Z,17.20
2022-10-19T04:07:02.330Z,17.20
2022-10-19T04:09:47.919Z,17.20
2022-10-19T04:12:33.963Z,17.20
2022-10-19T04:15:19.686Z,17.20
2022-10-19T04:18:05.477Z,17.20
2022-10-19T04:21:04.797Z,17.20
2022-10-19T04:23:52.348Z,17.10
2022-10-19T04:26:43.885Z,17.20
2022-10-19T04:29:30.877Z,17.10
2022-10-19T04:32:16.489Z,17.10
2022-10-19T04:35:01.875Z,17.10
2022-10-19T04:37:47.492Z,17.20
2022-10-19T04:40:35.531Z,17.30
2022-10-19T04:43:21.357Z,17.30
2022-10-19T04:46:14.748Z,17.20
2022-10-19T04:49:00.425Z,17.20
2022-10-19T04:51:45.765Z,17.30
2022-10-19T04:54:31.208Z,17.20
2022-10-19T04:57:17.098Z,17.10
2022-10-19T05:00:03.963Z,17.20
2022-10-19T05:02:49.583Z,17.00
2022-10-19T05:05:35.408Z,16.90
2022-10-19T05:08:20.907Z,17.00
2022-10-19T05:11:12.867Z,17.10
2022-10-19T05:13:59.758Z,17.10
2022-10-19T05:16:45.663Z,17.10
2022-10-19T05:19:31.160Z,17.00
2022-10-19T05:22:17.474Z,17.00
2022-10-19T05:25:03.004Z,17.00
2022-10-19T05:27:54.741Z,17.10
2022-10-19T05:30:46.658Z,17.20
2022-10-19T05:33:34.708Z,17.10
2022-10-19T05:36:26.353Z,17.00
2022-10-19T05:39:17.807Z,17.00
2022-10-19T05:42:03.575Z,16.90
2022-10-19T05:44:49.055Z,18.10
2022-10-19T05:47:35.184Z,16.90
2022-10-19T05:50:20.816Z,16.90
2022-10-19T05:53:06.428Z,17.00
2022-10-19T05:55:52.247Z,16.90
2022-10-19T05:58:37.587Z,16.90
2022-10-19T06:01:24.701Z,16.90
2022-10-19T06:04:10.945Z,17.00
2022-10-19T06:06:56.796Z,17.10
2022-10-19T06:09:42.410Z,17.00
2022-10-19T06:12:28.115Z,16.90
2022-10-19T06:15:13.739Z,16.80
2022-10-19T06:17:59.486Z,17.00
2022-10-19T06:20:44.800Z,17.30
2022-10-19T06:23:32.227Z,17.40
2022-10-19T06:26:17.984Z,17.50
2022-10-19T06:29:04.903Z,17.50
2022-10-19T06:31:50.628Z,17.60
2022-10-19T06:34:36.232Z,17.60
2022-10-19T06:37:22.157Z,17.70
2022-10-19T06:40:08.315Z,17.70
2022-10-19T06:42:55.682Z,17.90
2022-10-19T06:45:41.492Z,18.00
2022-10-19T06:48:27.100Z,18.00
2022-10-19T06:51:13.704Z,17.60
2022-10-19T06:54:00.261Z,17.20
2022-10-19T06:56:46.155Z,17.50
2022-10-19T06:59:31.757Z,17.60
2022-10-19T07:02:18.077Z,18.00
2022-10-19T07:05:06.888Z,18.50
2022-10-19T07:07:53.149Z,18.70
2022-10-19T07:10:42.919Z,18.90
2022-10-19T07:13:30.249Z,19.10
2022-10-19T07:16:20.985Z,19.30
2022-10-19T07:19:07.294Z,19.40
2022-10-19T07:21:53.450Z,19.60
2022-10-19T07:24:39.462Z,19.70
2022-10-19T07:27:25.379Z,19.90
2022-10-19T07:30:11.229Z,20.20
2022-10-19T07:32:56.562Z,20.70
2022-10-19T07:35:43.520Z,21.10
2022-10-19T07:38:31.485Z,21.50
2022-10-19T07:41:19.967Z,21.60
2022-10-19T07:44:05.683Z,21.70
2022-10-19T07:46:51.732Z,22.20
2022-10-19T07:49:37.419Z,22.00
2022-10-19T07:52:23.080Z,21.90
2022-10-19T07:55:08.931Z,21.80
2022-10-19T07:57:55.226Z,21.70
2022-10-19T08:00:41.384Z,21.80
2022-10-19T08:06:34.294Z,22.50
2022-10-19T08:09:47.289Z,23.50
2022-10-19T08:12:25.900Z,24.80
2022-10-19T08:15:12.943Z,23.80
2022-10-19T08:18:00.137Z,23.40
2022-10-19T08:20:45.658Z,23.70
2022-10-19T08:23:32.803Z,23.60
2022-10-19T08:26:18.492Z,24.80
2022-10-19T08:29:08.186Z,25.90
2022-10-19T08:31:53.887Z,26.10
2022-10-19T08:34:40.578Z,27.00
2022-10-19T08:37:40.827Z,27.80
2022-10-19T08:40:31.552Z,29.30
2022-10-19T08:43:21.869Z,29.50
2022-10-19T08:46:35.244Z,29.60
2022-10-19T08:49:25.614Z,30.10
2022-10-19T08:52:19.893Z,29.50
2022-10-19T08:55:20.646Z,28.80
2022-10-19T08:58:06.611Z,27.70
2022-10-19T09:01:37.802Z,28.60
2022-10-19T09:04:40.281Z,30.00
2022-10-19T09:07:45.065Z,30.90
2022-10-19T09:10:37.247Z,29.90
2022-10-19T09:13:47.087Z,30.60
2022-10-19T09:16:44.988Z,31.50
2022-10-19T09:19:32.049Z,32.00
2022-10-19T09:22:38.283Z,32.10
2022-10-19T09:25:25.543Z,31.60
2022-10-19T09:28:39.942Z,32.10
2022-10-19T09:31:40.318Z,32.90
2022-10-19T09:34:49.595Z,32.50
2022-10-19T09:37:42.399Z,27.30
2022-10-19T09:40:30.635Z,28.50
2022-10-19T09:43:20.825Z,27.00
2022-10-19T09:46:24.868Z,26.80
2022-10-19T09:49:10.724Z,27.60
2022-10-19T09:51:56.645Z,27.20
2022-10-19T09:54:42.110Z,26.70
2022-10-19T09:57:28.103Z,26.40
2022-10-19T10:00:35.644Z,26.80
2022-10-19T10:03:43.540Z,28.20
2022-10-19T10:06:30.016Z,28.50
2022-10-19T10:09:22.831Z,27.50
2022-10-19T10:12:09.054Z,26.20
2022-10-19T10:14:56.413Z,25.70
2022-10-19T10:17:47.544Z,24.50
2022-10-19T10:20:32.909Z,23.50
2022-10-19T10:23:25.269Z,23.40
2022-10-19T10:26:20.050Z,23.30
2022-10-19T10:29:20.173Z,23.60
2022-10-19T10:32:12.032Z,23.90
2022-10-19T10:35:04.594Z,23.70
2022-10-19T10:37:50.246Z,24.20
2022-10-19T10:40:38.391Z,23.90
2022-10-19T10:43:31.148Z,23.70
2022-10-19T10:46:22.646Z,23.30
2022-10-19T10:49:23.788Z,23.70
2022-10-19T10:52:16.280Z,23.30
2022-10-19T10:55:09.912Z,23.40
2022-10-19T10:58:24.256Z,22.60
2022-10-19T11:01:20.047Z,22.90
2022-10-19T11:04:12.553Z,24.00
2022-10-19T11:07:05.060Z,24.40
2022-10-19T11:09:58.312Z,24.60
2022-10-19T11:12:54.357Z,24.20
2022-10-19T11:15:57.462Z,24.20
2022-10-19T11:18:55.189Z,23.80
2022-10-19T11:22:07.896Z,23.20
2022-10-19T11:24:56.448Z,23.20
2022-10-19T11:28:03.996Z,23.50
2022-10-19T11:31:25.438Z,23.70
2022-10-19T11:34:25.832Z,24.10
2022-10-19T11:37:20.571Z,24.20
2022-10-19T11:40:38.452Z,23.80
2022-10-19T11:44:03.298Z,23.50
2022-10-19T11:47:13.845Z,23.70
2022-10-19T11:50:17.968Z,23.50
2022-10-19T11:53:22.920Z,23.60
2022-10-19T11:57:03.201Z,23.30
2022-10-19T12:00:15.038Z,23.50
2022-10-19T12:03:30.013Z,23.60
2022-10-19T12:06:18.818Z,23.90
2022-10-19T12:09:34.051Z,24.10
2022-10-19T12:12:37.149Z,24.10
2022-10-19T12:15:33.590Z,24.50
2022-10-19T12:18:36.113Z,24.70
2022-10-19T12:21:31.354Z,24.40
2022-10-19T12:24:25.097Z,24.50
2022-10-19T12:27:16.102Z,24.10
2022-10-19T12:30:09.090Z,24.60
2022-10-19T12:33:27.957Z,24.70
2022-10-19T12:36:26.736Z,24.10
2022-10-19T12:39:38.853Z,24.10
2022-10-19T12:43:07.096Z,24.10
2022-10-19T12:46:19.161Z,23.90
2022-10-19T12:49:26.787Z,23.90
2022-10-19T12:52:14.001Z,24.10
2022-10-19T12:55:35.017Z,24.10
2022-10-19T12:58:22.614Z,24.10
2022-10-19T13:01:13.019Z,24.00
2022-10-19T13:04:16.736Z,23.90
2022-10-19T13:07:05.831Z,24.00
2022-10-19T13:10:01.280Z,24.30
2022-10-19T13:12:47.958Z,24.00
2022-10-19T13:15:36.184Z,23.90
2022-10-19T13:18:59.325Z,24.10
2022-10-19T13:21:46.296Z,24.10
2022-10-19T13:24:35.305Z,24.30
2022-10-19T13:27:26.328Z,24.40
2022-10-19T13:30:39.870Z,23.90
2022-10-19T13:33:29.250Z,24.20
2022-10-19T13:36:15.603Z,24.00
2022-10-19T13:39:06.182Z,23.90
2022-10-19T13:41:54.108Z,24.00
2022-10-19T13:44:52.568Z,23.80
2022-10-19T13:47:43.308Z,23.80
2022-10-19T13:50:59.354Z,23.90
2022-10-19T13:54:07.944Z,23.90
2022-10-19T13:57:05.939Z,23.80
2022-10-19T14:00:12.114Z,23.90
2022-10-19T14:03:06.599Z,23.90
2022-10-19T14:06:16.051Z,24.40
2022-10-19T14:09:46.463Z,24.80
2022-10-19T14:12:35.700Z,24.70
2022-10-19T14:15:29.785Z,24.70
2022-10-19T14:18:31.862Z,24.20
2022-10-19T14:21:31.189Z,23.90
2022-10-19T14:24:35.029Z,23.90
2022-10-19T14:27:24.678Z,23.90
2022-10-19T14:30:28.237Z,24.00
2022-10-19T14:33:17.935Z,24.20
2022-10-19T14:36:03.894Z,24.40
2022-10-19T14:38:54.733Z,24.50
2022-10-19T14:41:40.498Z,24.50
2022-10-19T14:44:29.139Z,24.30
2022-10-19T14:47:23.669Z,24.30
2022-10-19T14:50:11.843Z,24.10
2022-10-19T14:53:26.201Z,24.00
2022-10-19T14:56:21.144Z,24.30
2022-10-19T14:59:27.449Z,24.60
2022-10-19T15:02:23.963Z,24.60
2022-10-19T15:05:23.235Z,24.20
2022-10-19T15:08:14.843Z,24.50
2022-10-19T15:11:00.256Z,24.50
2022-10-19T15:13:47.487Z,24.40
2022-10-19T15:16:53.531Z,24.20
2022-10-19T15:19:40.768Z,23.90
2022-10-19T15:22:32.634Z,24.00
2022-10-19T15:25:34.083Z,24.20
2022-10-19T15:28:31.268Z,24.20
2022-10-19T15:31:24.972Z,24.30
2022-10-19T15:34:24.480Z,24.20
2022-10-19T15:37:22.829Z,24.10
2022-10-19T15:40:23.179Z,24.00
2022-10-19T15:43:31.311Z,24.10
2022-10-19T15:46:34.153Z,24.10
2022-10-19T15:49:22.413Z,24.00
2022-10-19T15:52:26.070Z,23.90
2022-10-19T15:55:11.912Z,23.80
2022-10-19T15:58:00.875Z,23.70
2022-10-19T16:00:46.517Z,23.60
2022-10-19T16:03:32.079Z,23.60
2022-10-19T16:06:19.258Z,23.60
2022-10-19T16:09:06.025Z,23.50
2022-10-19T16:11:56.634Z,23.60
2022-10-19T16:14:42.429Z,23.40
2022-10-19T16:17:28.325Z,23.30
2022-10-19T16:20:14.163Z,23.10
2022-10-19T16:22:59.730Z,23.10
2022-10-19T16:25:45.434Z,23.20
2022-10-19T16:28:30.866Z,23.10
2022-10-19T16:31:17.428Z,23.20
2022-10-19T16:34:03.059Z,23.10
2022-10-19T16:36:48.940Z,23.20
2022-10-19T16:39:35.102Z,23.30
2022-10-19T16:42:21.854Z,23.20
2022-10-19T16:45:08.977Z,23.20
2022-10-19T16:47:54.984Z,23.20
2022-10-19T16:53:36.861Z,23.00
2022-10-19T16:56:24.652Z,23.00
2022-10-19T16:59:14.829Z,23.00
2022-10-19T17:02:00.649Z,22.90
2022-10-19T17:04:46.630Z,22.90
2022-10-19T17:07:35.070Z,23.00
2022-10-19T17:10:21.084Z,23.10
2022-10-19T17:13:06.520Z,23.00
2022-10-19T17:15:52.033Z,22.80
2022-10-19T17:18:38.208Z,23.00
2022-10-19T17:21:26.819Z,22.90
2022-10-19T17:24:21.612Z,22.80
2022-10-19T17:27:08.071Z,22.90
2022-10-19T17:29:53.712Z,23.00
2022-10-19T17:32:39.177Z,22.60
2022-10-19T17:35:24.678Z,22.30
2022-10-19T17:38:10.453Z,22.40
2022-10-19T17:40:56.227Z,22.30
2022-10-19T17:43:44.195Z,22.10
2022-10-19T17:46:32.550Z,22.00
2022-10-19T17:49:18.834Z,21.80
2022-10-19T17:52:04.953Z,22.00
2022-10-19T17:55:11.178Z,23.20
2022-10-19T17:57:56.611Z,22.30
2022-10-19T18:00:42.075Z,22.20
2022-10-19T18:03:30.985Z,22.10
2022-10-19T18:06:19.247Z,22.10
2022-10-19T18:09:07.229Z,22.00
2022-10-19T18:11:53.185Z,21.90
2022-10-19T18:14:39.603Z,21.60
2022-10-19T18:17:27.745Z,21.70
2022-10-19T18:20:13.752Z,21.60
2022-10-19T18:22:59.786Z,21.70
2022-10-19T18:25:54.026Z,21.50
2022-10-19T18:28:41.208Z,21.20
2022-10-19T18:31:31.547Z,21.30
2022-10-19T18:34:22.842Z,21.20
2022-10-19T18:37:08.928Z,21.10
2022-10-19T18:39:54.767Z,21.00
2022-10-19T18:42:40.187Z,21.00
2022-10-19T18:45:25.918Z,21.00
2022-10-19T18:48:11.755Z,20.90
2022-10-19T18:50:58.014Z,20.80
2022-10-19T18:53:45.002Z,20.80
2022-10-19T18:56:30.471Z,20.70
2022-10-19T18:59:16.251Z,20.70
2022-10-19T19:02:02.187Z,20.70
2022-10-19T19:04:47.677Z,20.60
2022-10-19T19:07:33.337Z,20.60
2022-10-19T19:10:19.143Z,20.60
2022-10-19T19:13:04.970Z,20.60
2022-10-19T19:16:00.902Z,20.60
2022-10-19T19:18:46.606Z,20.40
2022-10-19T19:21:33.284Z,20.40
2022-10-19T19:24:22.246Z,20.30
2022-10-19T19:27:08.257Z,20.30
2022-10-19T19:29:56.141Z,20.30
2022-10-19T19:32:41.778Z,20.40
2022-10-19T19:35:27.613Z,20.40
2022-10-19T19:38:15.087Z,20.10
2022-10-19T19:41:04.523Z,20.00
2022-10-19T19:43:50.393Z,19.90
2022-10-19T19:46:36.560Z,20.00
2022-10-19T19:49:23.765Z,20.00
2022-10-19T19:52:09.271Z,20.10
2022-10-19T19:54:55.452Z,20.00
2022-10-19T19:57:40.940Z,20.00
2022-10-19T20:00:26.548Z,20.00
2022-10-19T20:03:13.317Z,20.10
2022-10-19T20:06:02.902Z,20.10
2022-10-19T20:08:48.932Z,20.00
2022-10-19T20:11:37.246Z,20.10
2022-10-19T20:14:25.697Z,20.00
2022-10-19T20:17:11.752Z,19.90
2022-10-19T20:20:00.263Z,20.00
2022-10-19T20:22:47.548Z,19.70
2022-10-19T20:25:37.134Z,20.00
2022-10-19T20:28:24.935Z,19.90
2022-10-19T20:31:11.550Z,19.80
2022-10-19T20:33:57.712Z,19.80
2022-10-19T20:36:43.440Z,19.70
2022-10-19T20:39:29.226Z,19.70
2022-10-19T20:42:16.271Z,19.70
2022-10-19T20:45:01.870Z,19.70
2022-10-19T20:47:47.426Z,19.70
2022-10-19T20:50:32.995Z,19.80
2022-10-19T20:53:18.806Z,19.90
2022-10-19T20:56:06.551Z,19.70
2022-10-19T20:59:04.648Z,19.70
2022-10-19T21:01:52.065Z,19.80
2022-10-19T21:04:37.906Z,19.80
2022-10-19T21:07:23.304Z,19.00
2022-10-19T21:10:09.448Z,19.40
2022-10-19T21:12:55.469Z,18.90
2022-10-19T21:15:41.276Z,19.40
2022-10-19T21:18:26.751Z,19.40
2022-10-19T21:21:22.454Z,19.30
2022-10-19T21:24:14.473Z,19.40
2022-10-19T21:27:01.642Z,19.40
2022-10-19T21:29:47.468Z,19.40
2022-10-19T21:32:33.362Z,19.40
2022-10-19T21:35:18.845Z,19.50
2022-10-19T21:38:04.523Z,19.50
2022-10-19T21:40:50.041Z,19.70
2022-10-19T21:43:35.619Z,19.60
2022-10-19T21:46:22.703Z,19.60
2022-10-19T21:49:09.481Z,19.60
2022-10-19T21:51:55.402Z,19.60
2022-10-19T21:54:40.883Z,19.40
2022-10-19T21:57:26.784Z,19.40
2022-10-19T22:00:13.289Z,19.30
2022-10-19T22:03:01.616Z,19.30
2022-10-19T22:05:51.641Z,19.30
2022-10-19T22:08:37.758Z,19.30
2022-10-19T22:11:24.087Z,19.20
2022-10-19T22:14:12.253Z,19.20
2022-10-19T22:16:57.483Z,19.30
2022-10-19T22:19:42.940Z,19.30
2022-10-19T22:22:28.416Z,19.20
2022-10-19T22:25:14.124Z,19.10
2022-10-19T22:28:00.109Z,19.20
2022-10-19T22:30:53.212Z,19.20
2022-10-19T22:33:39.034Z,19.30
2022-10-19T22:36:24.834Z,19.30
2022-10-19T22:39:10.674Z,19.30
2022-10-19T22:42:52.624Z,19.30
2022-10-19T22:46:53.970Z,19.30
2022-10-19T22:50:54.580Z,19.30
2022-10-19T22:53:58.868Z,19.20
2022-10-19T22:56:44.378Z,19.20
2022-10-19T22:59:29.964Z,19.20
2022-10-19T23:02:15.516Z,19.10
2022-10-19T23:05:01.236Z,19.00
2022-10-19T23:07:47.003Z,19.00
2022-10-19T23:10:32.795Z,19.00
2022-10-19T23:13:18.806Z,19.00
2022-10-19T23:16:04.763Z,18.90
2022-10-19T23:18:50.737Z,18.90
2022-10-19T23:21:36.133Z,19.00
2022-10-19T23:24:21.856Z,18.90
2022-10-19T23:27:07.552Z,18.80
2022-10-19T23:29:53.223Z,18.80
2022-10-19T23:32:39.082Z,18.80
2022-10-19T23:35:24.539Z,18.80
2022-10-19T23:38:10.075Z,18.90
2022-10-19T23:40:55.996Z,18.90
2022-10-19T23:43:42.317Z,18.80
2022-10-19T23:46:27.952Z,18.80
2022-10-19T23:49:13.643Z,18.80
2022-10-19T23:51:59.146Z,18.70
2022-10-19T23:54:44.696Z,18.70
2022-10-19T23:57:30.222Z,18.80
